sensor_id;sensor_type;location;lat;lon;timestamp;P1;durP1;ratioP1;P2;durP2;ratioP2
45806;SDS011;31507;51.494;7.518;2022-07-09T00:00:00;7.07;;;3.83;;
45806;SDS011;31507;51.494;7.518;2022-07-09T00:02:26;9.00;;;3.78;;
45806;SDS011;31507;51.494;7.518;2022-07-09T00:04:51;9.05;;;4.68;;
45806;SDS011;31507;51.494;7.518;2022-07-09T00:07:17;7.97;;;4.30;;
45806;SDS011;31507;51.494;7.518;2022-07-09T00:09:43;10.93;;;4.90;;
45806;SDS011;31507;51.494;7.518;2022-07-09T00:12:08;7.25;;;3.88;;
45806;SDS011;31507;51.494;7.518;2022-07-09T00:14:34;7.60;;;4.25;;
45806;SDS011;31507;51.494;7.518;2022-07-09T00:17:00;6.80;;;4.00;;
45806;SDS011;31507;51.494;7.518;2022-07-09T00:19:25;7.35;;;4.45;;
45806;SDS011;31507;51.494;7.518;2022-07-09T00:21:51;9.10;;;4.55;;
45806;SDS011;31507;51.494;7.518;2022-07-09T00:24:17;8.73;;;5.25;;
45806;SDS011;31507;51.494;7.518;2022-07-09T00:26:43;10.27;;;4.85;;
45806;SDS011;31507;51.494;7.518;2022-07-09T00:29:08;9.30;;;5.40;;
45806;SDS011;31507;51.494;7.518;2022-07-09T00:31:34;9.18;;;4.60;;
45806;SDS011;31507;51.494;7.518;2022-07-09T00:34:00;12.27;;;5.50;;
45806;SDS011;31507;51.494;7.518;2022-07-09T00:36:26;13.27;;;5.43;;
45806;SDS011;31507;51.494;7.518;2022-07-09T00:38:52;7.20;;;4.63;;
45806;SDS011;31507;51.494;7.518;2022-07-09T00:41:17;10.52;;;6.10;;
45806;SDS011;31507;51.494;7.518;2022-07-09T00:43:46;11.02;;;5.07;;
45806;SDS011;31507;51.494;7.518;2022-07-09T00:46:16;9.73;;;5.65;;
45806;SDS011;31507;51.494;7.518;2022-07-09T00:48:42;20.00;;;7.40;;
45806;SDS011;31507;51.494;7.518;2022-07-09T00:51:14;11.02;;;6.30;;
45806;SDS011;31507;51.494;7.518;2022-07-09T00:53:42;13.70;;;6.32;;
45806;SDS011;31507;51.494;7.518;2022-07-09T00:56:09;12.18;;;5.82;;
45806;SDS011;31507;51.494;7.518;2022-07-09T00:58:36;11.88;;;6.40;;
45806;SDS011;31507;51.494;7.518;2022-07-09T01:01:02;9.27;;;6.80;;
45806;SDS011;31507;51.494;7.518;2022-07-09T01:03:28;8.70;;;5.85;;
45806;SDS011;31507;51.494;7.518;2022-07-09T01:05:54;15.68;;;7.53;;
45806;SDS011;31507;51.494;7.518;2022-07-09T01:08:21;12.90;;;6.75;;
45806;SDS011;31507;51.494;7.518;2022-07-09T01:10:47;10.35;;;6.45;;
45806;SDS011;31507;51.494;7.518;2022-07-09T01:13:16;13.57;;;7.15;;
45806;SDS011;31507;51.494;7.518;2022-07-09T01:15:41;10.68;;;6.75;;
45806;SDS011;31507;51.494;7.518;2022-07-09T01:18:10;15.25;;;7.60;;
45806;SDS011;31507;51.494;7.518;2022-07-09T01:20:37;14.35;;;7.20;;
45806;SDS011;31507;51.494;7.518;2022-07-09T01:23:03;16.27;;;8.13;;
45806;SDS011;31507;51.494;7.518;2022-07-09T01:25:39;19.77;;;7.50;;
45806;SDS011;31507;51.494;7.518;2022-07-09T01:28:07;18.17;;;7.00;;
45806;SDS011;31507;51.494;7.518;2022-07-09T01:30:34;15.20;;;7.45;;
45806;SDS011;31507;51.494;7.518;2022-07-09T01:33:01;11.95;;;7.38;;
45806;SDS011;31507;51.494;7.518;2022-07-09T01:35:28;11.80;;;7.00;;
45806;SDS011;31507;51.494;7.518;2022-07-09T01:37:54;14.20;;;6.60;;
45806;SDS011;31507;51.494;7.518;2022-07-09T01:40:20;14.40;;;6.55;;
45806;SDS011;31507;51.494;7.518;2022-07-09T01:42:46;13.40;;;7.47;;
45806;SDS011;31507;51.494;7.518;2022-07-09T01:45:12;10.63;;;7.45;;
45806;SDS011;31507;51.494;7.518;2022-07-09T01:47:39;17.83;;;8.45;;
45806;SDS011;31507;51.494;7.518;2022-07-09T01:50:05;14.35;;;7.97;;
45806;SDS011;31507;51.494;7.518;2022-07-09T01:52:31;17.98;;;7.57;;
45806;SDS011;31507;51.494;7.518;2022-07-09T01:54:57;14.63;;;8.02;;
45806;SDS011;31507;51.494;7.518;2022-07-09T01:57:22;11.77;;;7.38;;
45806;SDS011;31507;51.494;7.518;2022-07-09T01:59:48;13.93;;;8.23;;
45806;SDS011;31507;51.494;7.518;2022-07-09T02:02:14;15.25;;;8.05;;
45806;SDS011;31507;51.494;7.518;2022-07-09T02:04:39;16.30;;;7.60;;
45806;SDS011;31507;51.494;7.518;2022-07-09T02:07:05;17.02;;;8.50;;
45806;SDS011;31507;51.494;7.518;2022-07-09T02:09:31;14.15;;;8.25;;
45806;SDS011;31507;51.494;7.518;2022-07-09T02:11:56;10.38;;;7.60;;
45806;SDS011;31507;51.494;7.518;2022-07-09T02:14:22;14.60;;;7.90;;
45806;SDS011;31507;51.494;7.518;2022-07-09T02:16:48;15.98;;;9.40;;
45806;SDS011;31507;51.494;7.518;2022-07-09T02:19:14;13.18;;;8.70;;
45806;SDS011;31507;51.494;7.518;2022-07-09T02:21:39;15.93;;;8.82;;
45806;SDS011;31507;51.494;7.518;2022-07-09T02:24:05;12.88;;;8.25;;
45806;SDS011;31507;51.494;7.518;2022-07-09T02:26:31;10.07;;;7.28;;
45806;SDS011;31507;51.494;7.518;2022-07-09T02:28:58;13.20;;;8.07;;
45806;SDS011;31507;51.494;7.518;2022-07-09T02:31:24;9.25;;;7.80;;
45806;SDS011;31507;51.494;7.518;2022-07-09T02:33:51;13.40;;;10.32;;
45806;SDS011;31507;51.494;7.518;2022-07-09T02:36:17;17.73;;;9.05;;
45806;SDS011;31507;51.494;7.518;2022-07-09T02:38:43;13.73;;;9.00;;
45806;SDS011;31507;51.494;7.518;2022-07-09T02:41:09;15.82;;;9.40;;
45806;SDS011;31507;51.494;7.518;2022-07-09T02:43:35;12.52;;;8.95;;
45806;SDS011;31507;51.494;7.518;2022-07-09T02:46:01;13.30;;;8.75;;
45806;SDS011;31507;51.494;7.518;2022-07-09T02:48:26;21.08;;;9.05;;
45806;SDS011;31507;51.494;7.518;2022-07-09T02:50:52;15.15;;;8.55;;
45806;SDS011;31507;51.494;7.518;2022-07-09T02:53:18;15.55;;;9.43;;
45806;SDS011;31507;51.494;7.518;2022-07-09T02:55:44;11.25;;;8.23;;
45806;SDS011;31507;51.494;7.518;2022-07-09T02:58:10;15.90;;;8.70;;
45806;SDS011;31507;51.494;7.518;2022-07-09T03:00:36;14.23;;;9.07;;
45806;SDS011;31507;51.494;7.518;2022-07-09T03:03:04;12.50;;;7.90;;
45806;SDS011;31507;51.494;7.518;2022-07-09T03:05:30;14.38;;;8.45;;
45806;SDS011;31507;51.494;7.518;2022-07-09T03:07:56;13.70;;;8.40;;
45806;SDS011;31507;51.494;7.518;2022-07-09T03:10:22;13.82;;;7.63;;
45806;SDS011;31507;51.494;7.518;2022-07-09T03:12:48;16.38;;;8.10;;
45806;SDS011;31507;51.494;7.518;2022-07-09T03:15:13;10.90;;;6.95;;
45806;SDS011;31507;51.494;7.518;2022-07-09T03:17:41;11.48;;;6.75;;
45806;SDS011;31507;51.494;7.518;2022-07-09T03:20:08;12.50;;;7.25;;
45806;SDS011;31507;51.494;7.518;2022-07-09T03:22:34;14.13;;;6.20;;
45806;SDS011;31507;51.494;7.518;2022-07-09T03:25:00;13.07;;;6.88;;
45806;SDS011;31507;51.494;7.518;2022-07-09T03:27:26;11.18;;;6.80;;
45806;SDS011;31507;51.494;7.518;2022-07-09T03:29:51;11.63;;;5.97;;
45806;SDS011;31507;51.494;7.518;2022-07-09T03:32:17;12.95;;;6.85;;
45806;SDS011;31507;51.494;7.518;2022-07-09T03:34:43;14.20;;;6.95;;
45806;SDS011;31507;51.494;7.518;2022-07-09T03:37:08;11.80;;;6.10;;
45806;SDS011;31507;51.494;7.518;2022-07-09T03:39:34;16.73;;;6.93;;
45806;SDS011;31507;51.494;7.518;2022-07-09T03:42:00;9.45;;;5.63;;
45806;SDS011;31507;51.494;7.518;2022-07-09T03:44:26;12.77;;;6.65;;
45806;SDS011;31507;51.494;7.518;2022-07-09T03:46:52;12.00;;;6.53;;
45806;SDS011;31507;51.494;7.518;2022-07-09T03:49:17;8.63;;;5.90;;
45806;SDS011;31507;51.494;7.518;2022-07-09T03:51:43;16.38;;;5.70;;
45806;SDS011;31507;51.494;7.518;2022-07-09T03:54:09;8.77;;;5.90;;
45806;SDS011;31507;51.494;7.518;2022-07-09T03:56:35;8.98;;;5.93;;
45806;SDS011;31507;51.494;7.518;2022-07-09T03:59:01;10.43;;;4.90;;
45806;SDS011;31507;51.494;7.518;2022-07-09T04:01:27;12.20;;;5.28;;
45806;SDS011;31507;51.494;7.518;2022-07-09T04:03:52;12.13;;;5.35;;
45806;SDS011;31507;51.494;7.518;2022-07-09T04:06:18;10.18;;;5.35;;
45806;SDS011;31507;51.494;7.518;2022-07-09T04:08:45;13.68;;;5.40;;
45806;SDS011;31507;51.494;7.518;2022-07-09T04:11:11;11.77;;;5.63;;
45806;SDS011;31507;51.494;7.518;2022-07-09T04:13:37;9.32;;;5.78;;
45806;SDS011;31507;51.494;7.518;2022-07-09T04:16:02;9.25;;;5.40;;
45806;SDS011;31507;51.494;7.518;2022-07-09T04:18:29;10.80;;;5.95;;
45806;SDS011;31507;51.494;7.518;2022-07-09T04:20:54;11.50;;;5.60;;
45806;SDS011;31507;51.494;7.518;2022-07-09T04:23:22;10.40;;;5.78;;
45806;SDS011;31507;51.494;7.518;2022-07-09T04:25:48;9.52;;;5.05;;
45806;SDS011;31507;51.494;7.518;2022-07-09T04:28:15;9.98;;;5.95;;
45806;SDS011;31507;51.494;7.518;2022-07-09T04:30:42;9.00;;;5.05;;
45806;SDS011;31507;51.494;7.518;2022-07-09T04:33:08;13.95;;;5.60;;
45806;SDS011;31507;51.494;7.518;2022-07-09T04:35:33;12.48;;;5.75;;
45806;SDS011;31507;51.494;7.518;2022-07-09T04:38:00;13.20;;;5.63;;
45806;SDS011;31507;51.494;7.518;2022-07-09T04:40:26;13.27;;;6.25;;
45806;SDS011;31507;51.494;7.518;2022-07-09T04:42:52;12.75;;;6.05;;
45806;SDS011;31507;51.494;7.518;2022-07-09T04:45:18;10.63;;;5.47;;
45806;SDS011;31507;51.494;7.518;2022-07-09T04:47:43;10.88;;;5.72;;
45806;SDS011;31507;51.494;7.518;2022-07-09T04:50:09;11.60;;;6.38;;
45806;SDS011;31507;51.494;7.518;2022-07-09T04:52:36;11.38;;;6.15;;
45806;SDS011;31507;51.494;7.518;2022-07-09T04:55:02;13.48;;;6.35;;
45806;SDS011;31507;51.494;7.518;2022-07-09T04:57:28;12.90;;;6.60;;
45806;SDS011;31507;51.494;7.518;2022-07-09T05:00:03;15.40;;;6.35;;
45806;SDS011;31507;51.494;7.518;2022-07-09T05:02:29;10.73;;;5.53;;
45806;SDS011;31507;51.494;7.518;2022-07-09T05:04:55;14.57;;;6.00;;
45806;SDS011;31507;51.494;7.518;2022-07-09T05:07:20;8.30;;;5.32;;
45806;SDS011;31507;51.494;7.518;2022-07-09T05:09:46;11.80;;;5.55;;
45806;SDS011;31507;51.494;7.518;2022-07-09T05:12:12;15.20;;;5.63;;
45806;SDS011;31507;51.494;7.518;2022-07-09T05:14:37;8.30;;;4.90;;
45806;SDS011;31507;51.494;7.518;2022-07-09T05:17:04;8.77;;;5.18;;
45806;SDS011;31507;51.494;7.518;2022-07-09T05:19:30;10.77;;;5.45;;
45806;SDS011;31507;51.494;7.518;2022-07-09T05:21:56;14.23;;;5.85;;
45806;SDS011;31507;51.494;7.518;2022-07-09T05:24:22;10.82;;;5.13;;
45806;SDS011;31507;51.494;7.518;2022-07-09T05:26:47;9.95;;;5.70;;
45806;SDS011;31507;51.494;7.518;2022-07-09T05:29:13;13.43;;;6.10;;
45806;SDS011;31507;51.494;7.518;2022-07-09T05:31:39;14.10;;;5.38;;
45806;SDS011;31507;51.494;7.518;2022-07-09T05:34:05;15.07;;;8.93;;
45806;SDS011;31507;51.494;7.518;2022-07-09T05:36:31;11.98;;;7.32;;
45806;SDS011;31507;51.494;7.518;2022-07-09T05:38:57;13.18;;;6.38;;
45806;SDS011;31507;51.494;7.518;2022-07-09T05:41:26;8.55;;;6.43;;
45806;SDS011;31507;51.494;7.518;2022-07-09T05:43:55;10.32;;;6.20;;
45806;SDS011;31507;51.494;7.518;2022-07-09T05:46:21;12.82;;;6.53;;
45806;SDS011;31507;51.494;7.518;2022-07-09T05:48:47;9.02;;;5.43;;
45806;SDS011;31507;51.494;7.518;2022-07-09T05:51:13;9.30;;;5.35;;
45806;SDS011;31507;51.494;7.518;2022-07-09T05:53:40;11.90;;;6.10;;
45806;SDS011;31507;51.494;7.518;2022-07-09T05:56:05;8.43;;;5.43;;
45806;SDS011;31507;51.494;7.518;2022-07-09T05:58:32;10.82;;;4.60;;
45806;SDS011;31507;51.494;7.518;2022-07-09T06:00:58;9.55;;;4.40;;
45806;SDS011;31507;51.494;7.518;2022-07-09T06:03:24;6.22;;;3.67;;
45806;SDS011;31507;51.494;7.518;2022-07-09T06:05:49;10.15;;;4.32;;
45806;SDS011;31507;51.494;7.518;2022-07-09T06:08:15;11.85;;;3.95;;
45806;SDS011;31507;51.494;7.518;2022-07-09T06:10:40;9.52;;;4.35;;
45806;SDS011;31507;51.494;7.518;2022-07-09T06:13:07;7.13;;;3.70;;
45806;SDS011;31507;51.494;7.518;2022-07-09T06:15:33;6.55;;;3.90;;
45806;SDS011;31507;51.494;7.518;2022-07-09T06:17:58;8.98;;;3.50;;
45806;SDS011;31507;51.494;7.518;2022-07-09T06:20:24;7.95;;;3.85;;
45806;SDS011;31507;51.494;7.518;2022-07-09T06:22:50;5.38;;;3.00;;
45806;SDS011;31507;51.494;7.518;2022-07-09T06:25:15;4.93;;;2.85;;
45806;SDS011;31507;51.494;7.518;2022-07-09T06:27:41;4.72;;;2.97;;
45806;SDS011;31507;51.494;7.518;2022-07-09T06:30:07;6.72;;;2.85;;
45806;SDS011;31507;51.494;7.518;2022-07-09T06:32:34;6.18;;;2.38;;
45806;SDS011;31507;51.494;7.518;2022-07-09T06:35:00;7.60;;;2.30;;
45806;SDS011;31507;51.494;7.518;2022-07-09T06:37:27;7.82;;;1.92;;
45806;SDS011;31507;51.494;7.518;2022-07-09T06:39:53;3.80;;;2.30;;
45806;SDS011;31507;51.494;7.518;2022-07-09T06:42:20;4.18;;;2.28;;
45806;SDS011;31507;51.494;7.518;2022-07-09T06:44:46;5.28;;;2.13;;
45806;SDS011;31507;51.494;7.518;2022-07-09T06:47:12;5.57;;;2.45;;
45806;SDS011;31507;51.494;7.518;2022-07-09T06:49:38;5.93;;;1.77;;
45806;SDS011;31507;51.494;7.518;2022-07-09T06:52:04;5.63;;;1.67;;
45806;SDS011;31507;51.494;7.518;2022-07-09T06:54:30;4.53;;;1.80;;
45806;SDS011;31507;51.494;7.518;2022-07-09T06:56:56;5.47;;;1.52;;
45806;SDS011;31507;51.494;7.518;2022-07-09T06:59:22;1.40;;;1.30;;
45806;SDS011;31507;51.494;7.518;2022-07-09T07:01:51;3.92;;;1.45;;
45806;SDS011;31507;51.494;7.518;2022-07-09T07:04:16;3.22;;;1.92;;
45806;SDS011;31507;51.494;7.518;2022-07-09T07:06:42;4.00;;;1.63;;
45806;SDS011;31507;51.494;7.518;2022-07-09T07:09:08;4.72;;;1.42;;
45806;SDS011;31507;51.494;7.518;2022-07-09T07:11:34;2.45;;;1.25;;
45806;SDS011;31507;51.494;7.518;2022-07-09T07:14:00;2.33;;;1.20;;
45806;SDS011;31507;51.494;7.518;2022-07-09T07:16:26;1.50;;;1.25;;
45806;SDS011;31507;51.494;7.518;2022-07-09T07:18:52;1.88;;;1.05;;
45806;SDS011;31507;51.494;7.518;2022-07-09T07:21:18;1.45;;;1.23;;
45806;SDS011;31507;51.494;7.518;2022-07-09T07:23:43;6.53;;;1.40;;
45806;SDS011;31507;51.494;7.518;2022-07-09T07:26:09;2.30;;;1.15;;
45806;SDS011;31507;51.494;7.518;2022-07-09T07:28:35;2.15;;;1.15;;
45806;SDS011;31507;51.494;7.518;2022-07-09T07:31:00;1.52;;;1.15;;
45806;SDS011;31507;51.494;7.518;2022-07-09T07:33:26;2.03;;;1.00;;
45806;SDS011;31507;51.494;7.518;2022-07-09T07:35:52;1.90;;;0.98;;
45806;SDS011;31507;51.494;7.518;2022-07-09T07:38:17;2.75;;;0.80;;
45806;SDS011;31507;51.494;7.518;2022-07-09T07:40:43;1.75;;;0.90;;
45806;SDS011;31507;51.494;7.518;2022-07-09T07:43:12;1.88;;;0.85;;
45806;SDS011;31507;51.494;7.518;2022-07-09T07:45:38;1.75;;;1.13;;
45806;SDS011;31507;51.494;7.518;2022-07-09T07:48:03;0.73;;;0.73;;
45806;SDS011;31507;51.494;7.518;2022-07-09T07:50:29;1.30;;;0.80;;
45806;SDS011;31507;51.494;7.518;2022-07-09T07:52:57;2.25;;;1.00;;
45806;SDS011;31507;51.494;7.518;2022-07-09T07:55:23;2.63;;;0.80;;
45806;SDS011;31507;51.494;7.518;2022-07-09T07:57:48;1.63;;;0.80;;
45806;SDS011;31507;51.494;7.518;2022-07-09T08:00:14;1.48;;;0.80;;
45806;SDS011;31507;51.494;7.518;2022-07-09T08:02:40;1.05;;;0.68;;
45806;SDS011;31507;51.494;7.518;2022-07-09T08:05:06;1.23;;;0.70;;
45806;SDS011;31507;51.494;7.518;2022-07-09T08:07:32;0.68;;;0.65;;
45806;SDS011;31507;51.494;7.518;2022-07-09T08:09:57;1.83;;;0.90;;
45806;SDS011;31507;51.494;7.518;2022-07-09T08:12:25;0.90;;;0.50;;
45806;SDS011;31507;51.494;7.518;2022-07-09T08:14:50;1.60;;;0.80;;
45806;SDS011;31507;51.494;7.518;2022-07-09T08:17:16;1.58;;;0.75;;
45806;SDS011;31507;51.494;7.518;2022-07-09T08:19:42;2.65;;;0.75;;
45806;SDS011;31507;51.494;7.518;2022-07-09T08:22:07;0.95;;;0.60;;
45806;SDS011;31507;51.494;7.518;2022-07-09T08:24:33;1.10;;;0.70;;
45806;SDS011;31507;51.494;7.518;2022-07-09T08:26:58;0.93;;;0.47;;
45806;SDS011;31507;51.494;7.518;2022-07-09T08:29:24;1.00;;;0.60;;
45806;SDS011;31507;51.494;7.518;2022-07-09T08:31:50;2.65;;;0.60;;
45806;SDS011;31507;51.494;7.518;2022-07-09T08:34:16;0.95;;;0.68;;
45806;SDS011;31507;51.494;7.518;2022-07-09T08:36:42;3.40;;;0.75;;
45806;SDS011;31507;51.494;7.518;2022-07-09T08:39:08;0.60;;;0.60;;
45806;SDS011;31507;51.494;7.518;2022-07-09T08:41:33;1.27;;;0.80;;
45806;SDS011;31507;51.494;7.518;2022-07-09T08:43:59;0.80;;;0.80;;
45806;SDS011;31507;51.494;7.518;2022-07-09T08:46:28;1.20;;;0.70;;
45806;SDS011;31507;51.494;7.518;2022-07-09T08:48:56;0.55;;;0.55;;
45806;SDS011;31507;51.494;7.518;2022-07-09T08:51:23;2.03;;;0.80;;
45806;SDS011;31507;51.494;7.518;2022-07-09T08:53:49;1.35;;;0.80;;
45806;SDS011;31507;51.494;7.518;2022-07-09T08:56:15;1.00;;;0.68;;
45806;SDS011;31507;51.494;7.518;2022-07-09T08:58:41;1.25;;;0.68;;
45806;SDS011;31507;51.494;7.518;2022-07-09T09:01:06;3.00;;;1.00;;
45806;SDS011;31507;51.494;7.518;2022-07-09T09:03:33;1.17;;;0.98;;
45806;SDS011;31507;51.494;7.518;2022-07-09T09:06:04;2.60;;;1.00;;
45806;SDS011;31507;51.494;7.518;2022-07-09T09:08:41;2.67;;;0.88;;
45806;SDS011;31507;51.494;7.518;2022-07-09T09:11:12;1.38;;;0.85;;
45806;SDS011;31507;51.494;7.518;2022-07-09T09:13:40;1.40;;;0.80;;
45806;SDS011;31507;51.494;7.518;2022-07-09T09:16:09;1.80;;;0.70;;
45806;SDS011;31507;51.494;7.518;2022-07-09T09:18:36;1.10;;;0.77;;
45806;SDS011;31507;51.494;7.518;2022-07-09T09:21:06;1.55;;;0.63;;
45806;SDS011;31507;51.494;7.518;2022-07-09T09:26:18;2.72;;;0.90;;
45806;SDS011;31507;51.494;7.518;2022-07-09T09:28:48;2.92;;;0.95;;
45806;SDS011;31507;51.494;7.518;2022-07-09T09:31:31;1.67;;;1.02;;
45806;SDS011;31507;51.494;7.518;2022-07-09T09:33:57;2.40;;;1.00;;
45806;SDS011;31507;51.494;7.518;2022-07-09T09:36:30;5.47;;;1.02;;
45806;SDS011;31507;51.494;7.518;2022-07-09T09:39:10;2.00;;;1.00;;
45806;SDS011;31507;51.494;7.518;2022-07-09T09:41:43;1.25;;;0.65;;
45806;SDS011;31507;51.494;7.518;2022-07-09T09:44:14;2.28;;;0.85;;
45806;SDS011;31507;51.494;7.518;2022-07-09T09:46:42;2.35;;;0.88;;
45806;SDS011;31507;51.494;7.518;2022-07-09T09:49:09;1.90;;;0.75;;
45806;SDS011;31507;51.494;7.518;2022-07-09T09:51:50;1.50;;;1.00;;
45806;SDS011;31507;51.494;7.518;2022-07-09T09:54:17;1.77;;;0.80;;
45806;SDS011;31507;51.494;7.518;2022-07-09T09:56:44;2.50;;;0.75;;
45806;SDS011;31507;51.494;7.518;2022-07-09T09:59:11;1.25;;;0.77;;
45806;SDS011;31507;51.494;7.518;2022-07-09T10:01:37;3.55;;;1.17;;
45806;SDS011;31507;51.494;7.518;2022-07-09T10:04:06;1.85;;;1.08;;
45806;SDS011;31507;51.494;7.518;2022-07-09T10:06:40;1.50;;;0.85;;
45806;SDS011;31507;51.494;7.518;2022-07-09T10:09:07;1.60;;;0.80;;
45806;SDS011;31507;51.494;7.518;2022-07-09T10:11:43;3.03;;;0.80;;
45806;SDS011;31507;51.494;7.518;2022-07-09T10:14:16;7.18;;;1.02;;
45806;SDS011;31507;51.494;7.518;2022-07-09T10:16:53;1.50;;;0.85;;
45806;SDS011;31507;51.494;7.518;2022-07-09T10:19:26;2.88;;;0.90;;
45806;SDS011;31507;51.494;7.518;2022-07-09T10:21:54;1.63;;;0.90;;
45806;SDS011;31507;51.494;7.518;2022-07-09T10:24:25;0.70;;;0.70;;
45806;SDS011;31507;51.494;7.518;2022-07-09T10:27:08;1.52;;;0.80;;
45806;SDS011;31507;51.494;7.518;2022-07-09T10:29:35;1.33;;;0.70;;
45806;SDS011;31507;51.494;7.518;2022-07-09T10:32:21;1.10;;;0.85;;
45806;SDS011;31507;51.494;7.518;2022-07-09T10:37:36;2.10;;;1.10;;
45806;SDS011;31507;51.494;7.518;2022-07-09T10:40:16;1.83;;;1.02;;
45806;SDS011;31507;51.494;7.518;2022-07-09T10:43:01;2.58;;;1.08;;
45806;SDS011;31507;51.494;7.518;2022-07-09T10:45:29;3.30;;;1.10;;
45806;SDS011;31507;51.494;7.518;2022-07-09T10:48:04;2.58;;;1.20;;
45806;SDS011;31507;51.494;7.518;2022-07-09T10:50:31;2.03;;;1.20;;
45806;SDS011;31507;51.494;7.518;2022-07-09T10:53:00;3.03;;;1.30;;
45806;SDS011;31507;51.494;7.518;2022-07-09T10:55:28;4.03;;;1.10;;
45806;SDS011;31507;51.494;7.518;2022-07-09T10:57:54;3.22;;;1.27;;
45806;SDS011;31507;51.494;7.518;2022-07-09T11:00:22;1.40;;;1.10;;
45806;SDS011;31507;51.494;7.518;2022-07-09T11:02:58;3.63;;;1.00;;
45806;SDS011;31507;51.494;7.518;2022-07-09T11:05:29;3.85;;;1.17;;
45806;SDS011;31507;51.494;7.518;2022-07-09T11:07:56;1.67;;;1.10;;
45806;SDS011;31507;51.494;7.518;2022-07-09T11:10:23;2.67;;;1.10;;
45806;SDS011;31507;51.494;7.518;2022-07-09T11:12:50;2.65;;;1.38;;
45806;SDS011;31507;51.494;7.518;2022-07-09T11:15:17;2.65;;;1.40;;
45806;SDS011;31507;51.494;7.518;2022-07-09T11:17:56;2.97;;;1.27;;
45806;SDS011;31507;51.494;7.518;2022-07-09T11:20:22;3.97;;;1.25;;
45806;SDS011;31507;51.494;7.518;2022-07-09T11:22:48;2.15;;;1.17;;
45806;SDS011;31507;51.494;7.518;2022-07-09T11:25:15;1.58;;;0.90;;
45806;SDS011;31507;51.494;7.518;2022-07-09T11:27:41;2.17;;;1.23;;
45806;SDS011;31507;51.494;7.518;2022-07-09T11:30:11;6.00;;;1.63;;
45806;SDS011;31507;51.494;7.518;2022-07-09T11:32:43;2.40;;;1.25;;
45806;SDS011;31507;51.494;7.518;2022-07-09T11:35:10;3.97;;;1.10;;
45806;SDS011;31507;51.494;7.518;2022-07-09T11:37:36;3.75;;;1.30;;
45806;SDS011;31507;51.494;7.518;2022-07-09T11:40:03;1.55;;;1.10;;
45806;SDS011;31507;51.494;7.518;2022-07-09T11:42:29;3.85;;;1.10;;
45806;SDS011;31507;51.494;7.518;2022-07-09T11:44:56;2.55;;;1.10;;
45806;SDS011;31507;51.494;7.518;2022-07-09T11:47:35;2.97;;;1.58;;
45806;SDS011;31507;51.494;7.518;2022-07-09T11:50:10;3.17;;;1.52;;
45806;SDS011;31507;51.494;7.518;2022-07-09T11:52:47;3.28;;;1.48;;
45806;SDS011;31507;51.494;7.518;2022-07-09T11:55:15;3.03;;;1.65;;
45806;SDS011;31507;51.494;7.518;2022-07-09T11:57:53;2.42;;;1.20;;
45806;SDS011;31507;51.494;7.518;2022-07-09T12:00:31;4.95;;;1.27;;
45806;SDS011;31507;51.494;7.518;2022-07-09T12:02:58;2.45;;;1.60;;
45806;SDS011;31507;51.494;7.518;2022-07-09T12:07:55;1.98;;;1.13;;
45806;SDS011;31507;51.494;7.518;2022-07-09T12:10:30;2.45;;;1.25;;
45806;SDS011;31507;51.494;7.518;2022-07-09T12:13:01;3.55;;;1.30;;
45806;SDS011;31507;51.494;7.518;2022-07-09T12:15:28;2.95;;;1.50;;
45806;SDS011;31507;51.494;7.518;2022-07-09T12:17:54;2.92;;;1.65;;
45806;SDS011;31507;51.494;7.518;2022-07-09T12:20:24;10.15;;;2.10;;
45806;SDS011;31507;51.494;7.518;2022-07-09T12:22:51;3.38;;;2.17;;
45806;SDS011;31507;51.494;7.518;2022-07-09T12:25:18;7.95;;;2.72;;
45806;SDS011;31507;51.494;7.518;2022-07-09T12:27:44;6.03;;;2.80;;
45806;SDS011;31507;51.494;7.518;2022-07-09T12:30:10;4.50;;;2.80;;
45806;SDS011;31507;51.494;7.518;2022-07-09T12:32:36;6.40;;;3.10;;
45806;SDS011;31507;51.494;7.518;2022-07-09T12:35:02;4.05;;;3.00;;
45806;SDS011;31507;51.494;7.518;2022-07-09T12:37:28;5.82;;;3.53;;
45806;SDS011;31507;51.494;7.518;2022-07-09T12:39:54;5.00;;;3.30;;
45806;SDS011;31507;51.494;7.518;2022-07-09T12:42:20;5.10;;;2.83;;
45806;SDS011;31507;51.494;7.518;2022-07-09T12:44:46;6.03;;;2.95;;
45806;SDS011;31507;51.494;7.518;2022-07-09T12:47:12;4.70;;;2.75;;
45806;SDS011;31507;51.494;7.518;2022-07-09T12:49:38;5.32;;;3.33;;
45806;SDS011;31507;51.494;7.518;2022-07-09T12:52:04;6.13;;;2.92;;
45806;SDS011;31507;51.494;7.518;2022-07-09T12:54:30;3.20;;;2.90;;
45806;SDS011;31507;51.494;7.518;2022-07-09T12:56:55;3.30;;;2.97;;
45806;SDS011;31507;51.494;7.518;2022-07-09T12:59:21;3.35;;;2.80;;
45806;SDS011;31507;51.494;7.518;2022-07-09T13:01:47;4.90;;;3.05;;
45806;SDS011;31507;51.494;7.518;2022-07-09T13:04:13;3.45;;;3.00;;
45806;SDS011;31507;51.494;7.518;2022-07-09T13:06:39;5.68;;;2.88;;
45806;SDS011;31507;51.494;7.518;2022-07-09T13:09:08;5.47;;;3.30;;
45806;SDS011;31507;51.494;7.518;2022-07-09T13:11:35;3.95;;;3.20;;
45806;SDS011;31507;51.494;7.518;2022-07-09T13:14:02;5.50;;;3.40;;
45806;SDS011;31507;51.494;7.518;2022-07-09T13:16:28;6.00;;;3.70;;
45806;SDS011;31507;51.494;7.518;2022-07-09T13:18:54;4.30;;;3.90;;
45806;SDS011;31507;51.494;7.518;2022-07-09T13:21:20;9.27;;;4.53;;
45806;SDS011;31507;51.494;7.518;2022-07-09T13:23:47;6.63;;;4.68;;
45806;SDS011;31507;51.494;7.518;2022-07-09T13:26:25;5.60;;;4.60;;
45806;SDS011;31507;51.494;7.518;2022-07-09T13:28:55;6.07;;;4.65;;
45806;SDS011;31507;51.494;7.518;2022-07-09T13:31:20;12.43;;;5.30;;
45806;SDS011;31507;51.494;7.518;2022-07-09T13:33:46;5.25;;;4.57;;
45806;SDS011;31507;51.494;7.518;2022-07-09T13:36:15;8.15;;;4.45;;
45806;SDS011;31507;51.494;7.518;2022-07-09T13:38:40;5.18;;;4.40;;
45806;SDS011;31507;51.494;7.518;2022-07-09T13:41:06;6.20;;;4.43;;
45806;SDS011;31507;51.494;7.518;2022-07-09T13:43:31;5.28;;;4.78;;
45806;SDS011;31507;51.494;7.518;2022-07-09T13:45:58;6.43;;;5.25;;
45806;SDS011;31507;51.494;7.518;2022-07-09T13:48:24;5.47;;;4.97;;
45806;SDS011;31507;51.494;7.518;2022-07-09T13:50:50;6.43;;;5.18;;
45806;SDS011;31507;51.494;7.518;2022-07-09T13:53:16;6.97;;;4.70;;
45806;SDS011;31507;51.494;7.518;2022-07-09T13:55:42;10.98;;;5.35;;
45806;SDS011;31507;51.494;7.518;2022-07-09T13:58:09;8.13;;;6.28;;
45806;SDS011;31507;51.494;7.518;2022-07-09T14:00:35;7.72;;;5.90;;
45806;SDS011;31507;51.494;7.518;2022-07-09T14:03:01;9.45;;;6.28;;
45806;SDS011;31507;51.494;7.518;2022-07-09T14:05:27;9.85;;;6.95;;
45806;SDS011;31507;51.494;7.518;2022-07-09T14:07:53;8.20;;;6.22;;
45806;SDS011;31507;51.494;7.518;2022-07-09T14:10:19;9.00;;;5.80;;
45806;SDS011;31507;51.494;7.518;2022-07-09T14:12:45;9.10;;;5.10;;
45806;SDS011;31507;51.494;7.518;2022-07-09T14:15:11;7.78;;;5.00;;
45806;SDS011;31507;51.494;7.518;2022-07-09T14:17:37;8.00;;;4.45;;
45806;SDS011;31507;51.494;7.518;2022-07-09T14:20:03;5.93;;;4.00;;
45806;SDS011;31507;51.494;7.518;2022-07-09T14:22:31;5.78;;;3.80;;
45806;SDS011;31507;51.494;7.518;2022-07-09T14:24:57;8.52;;;3.95;;
45806;SDS011;31507;51.494;7.518;2022-07-09T14:27:23;4.53;;;3.38;;
45806;SDS011;31507;51.494;7.518;2022-07-09T14:29:48;4.72;;;3.50;;
45806;SDS011;31507;51.494;7.518;2022-07-09T14:32:14;6.13;;;3.30;;
45806;SDS011;31507;51.494;7.518;2022-07-09T14:34:40;4.13;;;3.40;;
45806;SDS011;31507;51.494;7.518;2022-07-09T14:37:05;3.85;;;3.20;;
45806;SDS011;31507;51.494;7.518;2022-07-09T14:39:31;4.38;;;2.60;;
45806;SDS011;31507;51.494;7.518;2022-07-09T14:41:56;4.85;;;3.25;;
45806;SDS011;31507;51.494;7.518;2022-07-09T14:44:22;3.47;;;2.83;;
45806;SDS011;31507;51.494;7.518;2022-07-09T14:46:48;6.90;;;3.60;;
45806;SDS011;31507;51.494;7.518;2022-07-09T14:49:14;4.22;;;2.60;;